CW6256 Weather Reports


Display with metric or nautical units.
time (UTC)temp
F
wind
direction
speed
MPH
gust
MPH
rain 1hr
in
rain 24hr
in
rain mn
in
humidity
%
barometer
mb
20260506023050 74 0 0.0 3.0 0.00 0.00 0.00 43 1013.3
20260506021548 75 67 0.0 2.0 0.00 0.00 0.00 41 1013.2
20260506020048 75 51 0.0 3.0 0.00 0.00 0.00 39 1013.1
20260506014557 76 0 0.0 3.0 0.00 0.00 0.00 40 1013.0
20260506013054 77 0 0.0 3.0 0.00 0.00 0.00 39 1012.9
20260506011548 78 76 1.0 5.0 0.00 0.00 0.00 36 1012.9
20260506010056 78 71 0.0 3.0 0.00 0.00 0.00 36 1012.9
20260506004553 78 0 0.0 2.0 0.00 0.00 0.00 37 1012.8
20260506003049 78 0 0.0 2.0 0.00 0.00 0.00 36 1012.7
20260506001553 78 0 1.0 5.0 0.00 0.00 0.00 35 1012.6
20260506000058 78 82 0.0 4.0 0.00 0.00 0.00 35 1012.6
20260505234552 78 0 1.0 4.0 0.00 0.00 0.00 37 1012.6
20260505233104 78 0 1.0 6.0 0.00 0.00 0.00 36 1012.8
20260505231555 78 79 0.0 6.0 0.00 0.00 0.00 38 1012.9
20260505230055 77 0 0.0 3.0 0.00 0.00 0.00 39 1013.0
20260505224558 76 0 0.0 2.0 0.00 0.00 0.00 41 1013.2
20260505223052 76 0 1.0 5.0 0.00 0.00 0.00 40 1013.4
20260505221558 77 0 0.0 3.0 0.00 0.00 0.00 40 1013.6
20260505220049 75 0 0.0 2.0 0.00 0.00 0.00 42 1013.8
20260505214548 74 0 0.0 3.0 0.00 0.00 0.00 44 1013.9
20260505213051 73 0 0.0 4.0 0.00 0.00 0.00 46 1014.0
20260505211549 73 36 0.0 3.0 0.00 0.00 0.00 47 1014.2
20260505210048 72 0 0.0 3.0 0.00 0.00 0.00 52 1014.4
20260505204549 72 0 0.0 3.0 0.00 0.00 0.00 47 1014.4
20260505203056 71 78 1.0 3.0 0.00 0.00 0.00 49 1014.7
20260505201555 70 105 0.0 2.0 0.00 0.00 0.00 56 1014.9
20260505200051 69 0 0.0 3.0 0.00 0.00 0.00 60 1015.1
20260505194556 68 0 0.0 4.0 0.00 0.00 0.00 61 1015.1
20260505193124 67 0 0.0 4.0 0.00 0.00 0.00 63 1015.2
20260505191558 66 0 0.0 3.0 0.00 0.00 0.00 65 1015.4
20260505190048 65 165 0.0 3.0 0.00 0.00 0.00 68 1015.5
20260505184556 63 0 0.0 4.0 0.00 0.00 0.00 68 1015.5
20260505183052 63 166 0.0 3.0 0.00 0.00 0.00 69 1015.7
20260505181556 63 0 0.0 4.0 0.00 0.00 0.00 68 1015.7
20260505180052 61 0 0.0 1.0 0.00 0.00 0.00 71 1015.8
20260505174548 61 70 0.0 3.0 0.00 0.00 0.00 71 1015.8
20260505173048 59 0 0.0 1.0 0.00 0.00 0.00 73 1015.8
20260505171551 59 0 0.0 2.0 0.00 0.00 0.00 76 1015.8
20260505170053 58 0 0.0 1.0 0.00 0.00 0.00 80 1015.8
20260505164551 58 0 0.0 2.0 0.00 0.00 0.00 79 1015.9
20260505163055 57 0 0.0 1.0 0.00 0.00 0.00 80 1015.9
20260505161553 57 0 0.0 2.0 0.00 0.00 0.00 81 1016.0
20260505153101 56 0 0.0 0.0 0.00 0.00 0.00 83 1015.9
20260505151554 56 0 0.0 0.0 0.00 0.00 0.00 84 1015.9
20260505124554 54 0 0.0 0.0 0.00 0.00 0.00 87 1014.8
20260505123110 54 0 0.0 0.0 0.00 0.00 0.00 86 1014.7
20260505121626 54 0 0.0 0.0 0.00 0.00 0.00 85 1014.6
20260505114552 54 0 0.0 0.0 0.00 0.00 0.00 85 1014.3
20260505113054 54 0 0.0 0.0 0.00 0.00 0.00 85 1014.4
20260505111552 55 0 0.0 0.0 0.00 0.00 0.00 85 1014.3
20260505101554 55 0 0.0 0.0 0.00 0.00 0.00 83 1014.1
20260505100056 55 0 0.0 0.0 0.00 0.00 0.00 83 1014.1
20260505094553 55 0 0.0 1.0 0.00 0.00 0.00 82 1014.1
20260505093052 55 0 0.0 1.0 0.00 0.00 0.00 81 1014.3
20260505091610 55 0 0.0 1.0 0.00 0.00 0.00 81 1014.3
20260505090114 56 0 0.0 1.0 0.00 0.00 0.00 81 1014.3
20260505084607 56 0 0.0 0.0 0.00 0.00 0.00 82 1014.3
20260505083112 56 0 0.0 0.0 0.00 0.00 0.00 81 1014.5
20260505081602 56 0 0.0 0.0 0.00 0.00 0.00 81 1014.6
20260505080059 56 0 0.0 0.0 0.00 0.00 0.00 82 1014.7
20260505074649 56 0 0.0 0.0 0.00 0.00 0.00 82 1014.7
20260505073059 56 0 0.0 0.0 0.00 0.00 0.00 82 1014.6
20260505071610 56 0 0.0 0.0 0.00 0.00 0.00 81 1014.5
20260505070127 56 0 0.0 0.0 0.00 0.00 0.00 81 1014.4
20260505070054 56 0 0.0 0.0 0.00 0.00 0.00 81 1014.4
20260505064550 56 0 0.0 0.0 0.00 0.00 0.00 82 1014.3
20260505063053 56 0 0.0 0.0 0.00 0.00 0.00 83 1014.3
20260505061558 55 0 0.0 0.0 0.00 0.00 0.00 84 1014.2
20260505060100 55 0 0.0 0.0 0.00 0.00 0.00 83 1014.1
20260505054552 55 0 0.0 0.0 0.00 0.00 0.00 82 1014.1
20260505053059 56 0 0.0 0.0 0.00 0.00 0.00 81 1014.0
20260505051553 56 0 0.0 0.0 0.00 0.00 0.00 81 1014.0
20260505041555 59 0 0.0 0.0 0.00 0.00 0.00 77 1012.9
20260505040056 60 0 0.0 0.0 0.00 0.00 0.00 76 1012.6
20260505034545 61 0 0.0 0.0 0.00 0.00 0.00 75 1012.3
20260505033048 61 0 0.0 0.0 0.00 0.00 0.00 73 1012.1
20260505031544 63 0 0.0 1.0 0.00 0.00 0.00 70 1011.7
20260505030109 64 0 0.0 3.0 0.00 0.00 0.00 69 1011.4
20260505024553 65 0 0.0 2.0 0.00 0.00 0.00 67 1011.3